Time;durP1;ratioP1;P1;durP2;ratioP2;P2;SDS_P1;SDS_P2;PMS_P1;PMS_P2;Temp;Humidity;BMP_temperature;BMP_pressure;BME280_temperature;BME280_humidity;BME280_pressure;Samples;Min_cycle;Max_cycle;Signal;HPM_P1;HPM_P2
2023/08/30 00:01:13;;;;;;;6.23;5.57;;;16.20;47.20;;;;;;4998452;28;20179;-89
2023/08/30 00:03:39;;;;;;;7.67;5.23;;;16.10;49.10;;;;;;4998660;28;20187;-89
2023/08/30 00:06:05;;;;;;;8.17;5.10;;;16.10;49.00;;;;;;4997865;28;20185;-89
2023/08/30 00:08:32;;;;;;;7.53;4.90;;;16.10;48.20;;;;;;5016079;28;20241;-89
2023/08/30 00:10:58;;;;;;;9.23;5.50;;;16.10;49.30;;;;;;4998262;28;20691;-88
2023/08/30 00:13:29;;;;;;;10.03;5.30;;;16.00;48.40;;;;;;4996935;28;20220;-89
2023/08/30 00:15:55;;;;;;;6.13;5.10;;;16.00;49.20;;;;;;4998071;28;20187;-89
2023/08/30 00:18:21;;;;;;;8.90;5.03;;;16.00;50.20;;;;;;4998738;28;20222;-89
2023/08/30 00:20:47;;;;;;;7.67;4.93;;;16.10;49.50;;;;;;5014160;28;20232;-87
2023/08/30 00:23:13;;;;;;;5.47;4.83;;;16.10;47.80;;;;;;4997527;28;20175;-87
2023/08/30 00:25:38;;;;;;;8.33;5.33;;;16.00;48.60;;;;;;4997229;28;20232;-87
2023/08/30 00:28:04;;;;;;;7.77;4.50;;;16.10;48.50;;;;;;4997794;28;20174;-87
2023/08/30 00:30:30;;;;;;;6.27;4.73;;;16.00;49.00;;;;;;4997684;28;20233;-87
2023/08/30 00:32:55;;;;;;;8.10;5.27;;;16.00;49.00;;;;;;4997266;28;20698;-85
2023/08/30 00:35:22;;;;;;;7.97;5.00;;;16.00;48.70;;;;;;4997805;28;20600;-88
2023/08/30 00:37:47;;;;;;;8.40;5.10;;;16.10;46.70;;;;;;4996940;28;20552;-87
2023/08/30 00:40:13;;;;;;;9.33;4.87;;;16.00;45.10;;;;;;4998151;28;20661;-86
2023/08/30 00:42:40;;;;;;;8.07;5.30;;;15.80;45.10;;;;;;4998085;28;20646;-89
2023/08/30 00:45:06;;;;;;;6.37;5.10;;;15.80;45.50;;;;;;5015852;28;20209;-87
2023/08/30 00:47:33;;;;;;;7.80;5.07;;;15.80;46.70;;;;;;4998561;28;20221;-89
2023/08/30 00:49:59;;;;;;;5.57;4.80;;;15.80;47.20;;;;;;4997822;28;20743;-87
2023/08/30 00:52:25;;;;;;;7.07;5.40;;;15.80;48.20;;;;;;4998881;28;20182;-88
2023/08/30 00:54:51;;;;;;;5.77;4.80;;;15.80;48.80;;;;;;4999435;28;20198;-87
2023/08/30 00:57:16;;;;;;;8.47;5.47;;;15.70;48.10;;;;;;4997720;28;20226;-88
2023/08/30 00:59:42;;;;;;;5.93;5.13;;;15.60;49.50;;;;;;5015232;28;20181;-87
2023/08/30 01:02:09;;;;;;;8.70;5.10;;;15.60;50.50;;;;;;4996831;28;20176;-87
2023/08/30 01:04:34;;;;;;;7.93;5.17;;;15.50;51.70;;;;;;4997058;28;20205;-87
2023/08/30 01:07:00;;;;;;;7.07;5.03;;;15.50;51.90;;;;;;4997072;28;20198;-87
2023/08/30 01:09:26;;;;;;;6.53;5.33;;;15.50;51.70;;;;;;4997345;28;20708;-87
2023/08/30 01:11:59;;;;;;;7.37;5.57;;;15.50;52.80;;;;;;4997462;28;20182;-89
2023/08/30 01:14:37;;;;;;;7.20;5.33;;;15.60;52.60;;;;;;4997264;28;20281;-89
2023/08/30 01:17:05;;;;;;;7.47;5.40;;;15.60;51.40;;;;;;5015387;28;20289;-86
2023/08/30 01:19:55;;;;;;;7.37;5.40;;;15.60;50.60;;;;;;5018358;28;20197;-86
2023/08/30 01:22:39;;;;;;;9.53;5.03;;;15.70;48.20;;;;;;5020044;28;20201;-88
2023/08/30 01:25:28;;;;;;;9.07;5.23;;;15.80;44.80;;;;;;5002982;28;20268;-87
2023/08/30 01:27:54;;;;;;;8.93;5.40;;;15.70;45.20;;;;;;5014810;28;20227;-91
2023/08/30 01:30:23;;;;;;;7.07;5.13;;;15.60;47.10;;;;;;5015407;28;20179;-88
2023/08/30 01:32:50;;;;;;;11.83;5.63;;;15.50;50.40;;;;;;4997764;28;20171;-90
2023/08/30 01:35:19;;;;;;;7.37;5.23;;;15.60;51.80;;;;;;4997331;28;20640;-90
2023/08/30 01:37:46;;;;;;;6.67;4.77;;;15.60;50.00;;;;;;4996533;28;20674;-91
2023/08/30 01:40:15;;;;;;;8.37;5.57;;;15.70;48.90;;;;;;4996529;28;20181;-89
2023/08/30 01:42:42;;;;;;;8.40;5.43;;;15.60;45.80;;;;;;4997259;28;20623;-88
2023/08/30 01:45:13;;;;;;;10.80;5.87;;;15.70;44.70;;;;;;4996403;28;20180;-88
2023/08/30 01:47:40;;;;;;;7.93;5.97;;;15.70;43.00;;;;;;4996896;28;20198;-88
2023/08/30 01:50:07;;;;;;;11.23;6.10;;;15.80;41.80;;;;;;5014422;28;20159;-88
2023/08/30 01:52:33;;;;;;;7.87;5.90;;;15.80;41.50;;;;;;4996601;28;20174;-88
2023/08/30 01:55:02;;;;;;;9.27;5.70;;;15.80;39.70;;;;;;4996871;28;20245;-88
2023/08/30 01:57:27;;;;;;;9.17;5.77;;;15.70;41.50;;;;;;4998028;28;20211;-87
2023/08/30 01:59:53;;;;;;;7.17;5.80;;;15.70;41.60;;;;;;4996603;28;20241;-88
2023/08/30 02:02:19;;;;;;;9.40;6.50;;;15.60;43.40;;;;;;4995826;28;20286;-88
2023/08/30 02:04:45;;;;;;;8.13;6.00;;;15.60;46.20;;;;;;4996778;28;20218;-88
2023/08/30 02:07:20;;;;;;;8.90;5.37;;;15.70;45.00;;;;;;4996483;28;20174;-89
2023/08/30 02:09:57;;;;;;;8.27;5.80;;;15.50;48.00;;;;;;4996522;28;20276;-88
2023/08/30 02:12:27;;;;;;;8.77;6.23;;;15.50;50.60;;;;;;4996161;28;20181;-88
2023/08/30 02:14:53;;;;;;;10.40;5.40;;;15.60;50.50;;;;;;4997089;28;20230;-89
2023/08/30 02:17:19;;;;;;;8.20;5.80;;;15.60;50.00;;;;;;4995906;28;20686;-89
2023/08/30 02:19:46;;;;;;;8.53;6.33;;;15.50;50.40;;;;;;4996761;28;20176;-89
2023/08/30 02:22:12;;;;;;;8.93;5.67;;;15.50;51.70;;;;;;4996485;28;20277;-89
2023/08/30 02:24:37;;;;;;;7.63;5.90;;;15.60;52.10;;;;;;5013233;28;20176;-89
2023/08/30 02:27:04;;;;;;;10.20;5.80;;;15.70;50.00;;;;;;4996736;28;20178;-88
2023/08/30 02:29:30;;;;;;;10.33;5.73;;;15.60;48.80;;;;;;4997070;28;20185;-89
2023/08/30 02:31:55;;;;;;;8.13;5.60;;;15.60;49.10;;;;;;5008802;28;20172;-86
2023/08/30 02:34:21;;;;;;;7.40;5.93;;;15.60;50.80;;;;;;5020112;28;20246;-86
2023/08/30 02:36:47;;;;;;;8.20;5.30;;;15.70;49.10;;;;;;5020361;28;20255;-88
2023/08/30 02:39:14;;;;;;;10.63;6.33;;;15.70;49.00;;;;;;5024401;28;20194;-86
2023/08/30 02:41:40;;;;;;;9.20;5.67;;;15.70;49.80;;;;;;5022228;28;20202;-89
2023/08/30 02:44:11;;;;;;;7.30;5.60;;;15.80;47.60;;;;;;4999758;28;20177;-86
2023/08/30 02:46:37;;;;;;;10.97;5.33;;;15.70;48.90;;;;;;5017995;28;20182;-88
2023/08/30 02:49:21;;;;;;;6.50;5.00;;;15.80;49.20;;;;;;5000238;28;20568;-87
2023/08/30 02:51:47;;;;;;;8.73;4.93;;;15.70;48.60;;;;;;5017204;28;20177;-87
2023/08/30 02:54:13;;;;;;;9.97;5.53;;;15.70;50.10;;;;;;4998472;28;20171;-86
2023/08/30 02:56:42;;;;;;;8.10;4.77;;;15.80;49.80;;;;;;4999227;28;20242;-86
2023/08/30 02:59:08;;;;;;;7.50;4.97;;;15.90;49.20;;;;;;4999599;28;20231;-86
2023/08/30 03:01:35;;;;;;;9.83;5.07;;;15.80;46.90;;;;;;4999670;28;20178;-87
2023/08/30 03:04:00;;;;;;;8.60;5.10;;;15.70;49.20;;;;;;5022121;28;20162;-87
2023/08/30 03:06:26;;;;;;;8.83;5.67;;;15.70;50.30;;;;;;5024298;28;20214;-87
2023/08/30 03:08:54;;;;;;;8.40;5.20;;;15.60;52.10;;;;;;5023792;28;20198;-87
2023/08/30 03:11:19;;;;;;;9.33;6.43;;;15.60;53.50;;;;;;5023648;28;20175;-85
2023/08/30 03:13:46;;;;;;;8.83;5.87;;;15.70;53.90;;;;;;5023712;28;20173;-87
2023/08/30 03:16:16;;;;;;;8.83;6.23;;;15.70;53.50;;;;;;5004451;28;20189;-87
2023/08/30 03:22:03;;;;;;;8.50;6.00;;;15.70;56.50;;;;;;5017828;28;20161;-87
2023/08/30 03:27:51;;;;;;;10.50;6.20;;;15.70;56.90;;;;;;5017773;28;20269;-89
2023/08/30 03:30:17;;;;;;;8.17;6.43;;;15.60;58.60;;;;;;4999292;28;20175;-88
2023/08/30 03:32:43;;;;;;;9.73;6.80;;;15.60;60.80;;;;;;4999660;28;20197;-89
2023/08/30 03:35:08;;;;;;;9.83;6.77;;;15.60;63.50;;;;;;5016397;28;20189;-87
2023/08/30 03:37:34;;;;;;;10.67;6.83;;;15.70;64.60;;;;;;4998861;28;20212;-87
2023/08/30 03:40:00;;;;;;;11.57;6.57;;;15.70;65.20;;;;;;4999391;28;20174;-87
2023/08/30 03:42:25;;;;;;;10.13;6.73;;;15.80;65.70;;;;;;4999292;28;20202;-89
2023/08/30 03:44:51;;;;;;;10.03;6.57;;;15.80;63.70;;;;;;4999029;28;20692;-88
2023/08/30 03:47:17;;;;;;;10.13;5.83;;;15.80;63.80;;;;;;4998980;28;20186;-89
2023/08/30 03:49:44;;;;;;;9.03;6.00;;;15.90;61.90;;;;;;5017126;28;20255;-88
2023/08/30 03:52:09;;;;;;;13.73;6.37;;;15.90;59.60;;;;;;5001147;28;20177;-89
2023/08/30 03:54:35;;;;;;;9.07;5.80;;;15.90;59.40;;;;;;5016225;28;20173;-88
2023/08/30 03:57:02;;;;;;;10.17;6.23;;;15.70;58.80;;;;;;5020287;28;20316;-89
2023/08/30 03:59:28;;;;;;;10.67;6.33;;;15.70;61.00;;;;;;5022841;28;20163;-86
2023/08/30 04:01:54;;;;;;;8.40;6.03;;;15.70;63.20;;;;;;5011002;28;20194;-89
2023/08/30 04:04:20;;;;;;;9.13;6.33;;;15.60;62.50;;;;;;4997836;28;20182;-89
2023/08/30 04:06:45;;;;;;;12.03;6.37;;;15.70;63.60;;;;;;4997731;28;20188;-87
2023/08/30 04:09:11;;;;;;;8.10;5.67;;;15.60;62.80;;;;;;4998220;28;20270;-87
2023/08/30 04:11:37;;;;;;;10.03;6.20;;;15.70;62.40;;;;;;4997411;28;20618;-87
2023/08/30 04:14:02;;;;;;;10.00;5.87;;;15.60;62.30;;;;;;4997765;28;20202;-87
2023/08/30 04:16:28;;;;;;;10.67;5.90;;;15.60;63.60;;;;;;4997687;28;20599;-88
2023/08/30 04:18:54;;;;;;;9.27;6.50;;;15.50;64.50;;;;;;4997780;28;20245;-87
2023/08/30 04:21:20;;;;;;;9.60;6.13;;;15.50;64.90;;;;;;4998127;28;20685;-88
2023/08/30 04:23:45;;;;;;;12.70;6.13;;;15.50;65.40;;;;;;4997769;28;20202;-89
2023/08/30 04:26:11;;;;;;;8.07;6.07;;;15.60;63.60;;;;;;4998286;28;20174;-88
2023/08/30 04:28:37;;;;;;;8.80;5.90;;;15.60;63.10;;;;;;4997685;28;20206;-88
2023/08/30 04:31:02;;;;;;;9.80;5.40;;;15.60;68.30;;;;;;4998917;28;20184;-89
2023/08/30 04:33:28;;;;;;;9.63;6.10;;;15.50;74.00;;;;;;4999376;28;20183;-90
2023/08/30 04:35:54;;;;;;;8.33;5.60;;;15.40;78.30;;;;;;4997459;28;20466;-89
2023/08/30 04:38:20;;;;;;;9.00;6.00;;;15.30;83.80;;;;;;4997807;28;20241;-89
2023/08/30 04:40:47;;;;;;;10.13;6.57;;;15.30;90.10;;;;;;4997467;28;20185;-89
2023/08/30 04:43:13;;;;;;;10.60;6.37;;;15.20;93.10;;;;;;4998603;28;20190;-89
2023/08/30 04:45:39;;;;;;;9.87;6.23;;;15.20;95.80;;;;;;4999128;28;20594;-91
2023/08/30 04:48:05;;;;;;;7.90;5.47;;;15.10;97.70;;;;;;5015110;28;20187;-88
2023/08/30 04:50:31;;;;;;;8.93;6.37;;;15.10;99.10;;;;;;5000098;28;20178;-89
2023/08/30 04:52:58;;;;;;;9.93;7.00;;;15.00;99.90;;;;;;4999625;28;20182;-89
2023/08/30 04:55:25;;;;;;;13.17;7.33;;;15.10;99.90;;;;;;4997810;28;20704;-88
2023/08/30 04:57:50;;;;;;;11.20;6.80;;;15.00;99.90;;;;;;4996584;28;20685;-87
2023/08/30 05:00:17;;;;;;;11.20;6.40;;;15.10;99.90;;;;;;4997202;28;20186;-88
2023/08/30 05:02:46;;;;;;;10.97;6.33;;;15.10;99.90;;;;;;5034450;28;20177;-87
2023/08/30 05:05:12;;;;;;;10.63;6.50;;;15.10;99.90;;;;;;5016758;28;20182;-86
2023/08/30 05:07:38;;;;;;;8.97;6.60;;;15.10;99.90;;;;;;5007899;28;20186;-88
2023/08/30 05:10:04;;;;;;;11.37;6.83;;;15.10;99.90;;;;;;4999465;28;20756;-88
2023/08/30 05:12:36;;;;;;;12.07;7.40;;;15.00;99.90;;;;;;4998921;28;20174;-89
2023/08/30 05:15:03;;;;;;;10.87;7.57;;;15.00;99.90;;;;;;4997647;28;20198;-89
2023/08/30 05:17:29;;;;;;;9.47;6.93;;;15.00;99.90;;;;;;5014674;28;20221;-88
2023/08/30 05:19:55;;;;;;;10.53;6.80;;;14.90;99.90;;;;;;4997048;28;20582;-90
2023/08/30 05:22:21;;;;;;;12.07;8.40;;;14.90;99.90;;;;;;4997562;28;20502;-87
2023/08/30 05:24:47;;;;;;;14.60;9.50;;;14.90;99.90;;;;;;4998011;28;20269;-88
2023/08/30 05:27:14;;;;;;;16.40;10.40;;;14.90;99.90;;;;;;4996475;28;20622;-88
2023/08/30 05:29:40;;;;;;;17.30;11.00;;;14.90;99.90;;;;;;4996894;28;20200;-89
2023/08/30 05:32:06;;;;;;;14.90;9.97;;;14.90;99.90;;;;;;4996394;28;20258;-88
2023/08/30 05:34:31;;;;;;;13.27;9.43;;;14.80;99.90;;;;;;4996199;28;20200;-87
2023/08/30 05:36:57;;;;;;;11.53;8.83;;;14.80;99.90;;;;;;4996161;28;20257;-88
2023/08/30 05:39:23;;;;;;;10.70;7.67;;;14.80;99.90;;;;;;4996907;28;20685;-88
2023/08/30 05:41:48;;;;;;;9.77;7.20;;;14.70;99.90;;;;;;4996071;28;20232;-88
2023/08/30 05:44:14;;;;;;;9.83;7.40;;;14.70;99.90;;;;;;4997466;28;20261;-90
2023/08/30 05:46:40;;;;;;;8.60;7.00;;;14.70;99.90;;;;;;4997052;28;20186;-89
2023/08/30 05:49:07;;;;;;;14.30;7.97;;;14.70;99.90;;;;;;4997511;28;20191;-86
2023/08/30 05:51:32;;;;;;;8.87;6.67;;;14.70;99.90;;;;;;4997500;28;20182;-87
2023/08/30 05:53:58;;;;;;;9.40;6.83;;;14.70;99.90;;;;;;4999045;28;20328;-87
2023/08/30 05:56:24;;;;;;;9.00;6.73;;;14.80;99.90;;;;;;4997106;28;20332;-88
2023/08/30 05:58:49;;;;;;;7.50;6.00;;;14.80;99.90;;;;;;4980496;28;20649;-89
2023/08/30 06:01:18;;;;;;;8.03;6.20;;;14.80;99.90;;;;;;4996390;28;20578;-91
2023/08/30 06:03:45;;;;;;;7.20;6.27;;;14.80;99.90;;;;;;4996610;28;20184;-88
2023/08/30 06:06:11;;;;;;;6.97;5.97;;;14.80;99.90;;;;;;4997044;28;20170;-88
2023/08/30 06:08:37;;;;;;;7.27;5.90;;;14.90;99.90;;;;;;4996462;28;20185;-87
2023/08/30 06:11:02;;;;;;;7.43;5.97;;;14.90;99.90;;;;;;4996125;28;20181;-87
2023/08/30 06:13:28;;;;;;;7.13;5.30;;;14.90;99.90;;;;;;4999116;28;20550;-88
2023/08/30 06:15:55;;;;;;;9.27;5.70;;;14.90;99.90;;;;;;4999447;28;20578;-88
2023/08/30 06:18:20;;;;;;;8.57;5.40;;;15.00;99.90;;;;;;4999326;28;20214;-83
2023/08/30 06:20:46;;;;;;;8.97;5.30;;;15.20;99.90;;;;;;5016703;28;20174;-85
2023/08/30 06:23:14;;;;;;;7.97;5.60;;;15.20;99.90;;;;;;4999996;28;20174;-86
2023/08/30 06:25:40;;;;;;;9.00;6.17;;;15.10;99.90;;;;;;5000074;28;20188;-87
2023/08/30 06:28:06;;;;;;;7.77;6.43;;;15.10;99.90;;;;;;5017986;28;20194;-89
2023/08/30 06:30:31;;;;;;;7.80;5.87;;;15.20;99.90;;;;;;5005569;28;20193;-87
2023/08/30 06:32:57;;;;;;;6.93;6.20;;;15.20;99.90;;;;;;5000768;28;20182;-87
2023/08/30 06:35:24;;;;;;;8.13;6.30;;;15.10;99.90;;;;;;4999834;28;20630;-86
2023/08/30 06:37:50;;;;;;;8.73;6.40;;;15.10;99.90;;;;;;4996153;28;20329;-88
2023/08/30 06:40:16;;;;;;;8.23;6.90;;;15.10;99.90;;;;;;4998736;28;20245;-89
2023/08/30 06:42:42;;;;;;;8.53;6.73;;;15.10;99.90;;;;;;5001152;28;20533;-89
2023/08/30 06:45:08;;;;;;;8.80;7.90;;;15.10;99.90;;;;;;5001836;28;20175;-90
2023/08/30 06:47:33;;;;;;;11.10;7.70;;;15.10;99.90;;;;;;5001792;28;20243;-89
2023/08/30 06:50:00;;;;;;;9.10;7.73;;;14.90;99.90;;;;;;4989444;28;20194;-90
2023/08/30 06:52:27;;;;;;;9.27;7.57;;;15.10;99.90;;;;;;4992328;28;20886;-90
2023/08/30 06:54:52;;;;;;;9.80;7.80;;;15.10;99.90;;;;;;5002952;28;20185;-90
2023/08/30 06:57:22;;;;;;;12.63;8.17;;;15.10;99.90;;;;;;4999709;28;20211;-87
2023/08/30 06:59:51;;;;;;;9.20;7.23;;;15.10;99.90;;;;;;5001017;28;20194;-89
2023/08/30 07:02:37;;;;;;;10.57;8.00;;;15.00;99.90;;;;;;5008564;28;20182;-93
2023/08/30 07:05:04;;;;;;;11.23;7.57;;;15.10;99.90;;;;;;5029373;28;20217;-88
2023/08/30 07:07:31;;;;;;;11.57;8.93;;;15.20;99.90;;;;;;5024662;28;20179;-93
2023/08/30 07:09:57;;;;;;;9.37;6.97;;;15.50;99.90;;;;;;5026946;28;20194;-94
2023/08/30 07:12:22;;;;;;;8.93;6.37;;;15.60;99.90;;;;;;5021603;28;20246;-88
2023/08/30 07:14:49;;;;;;;8.77;6.87;;;15.70;99.90;;;;;;5021320;28;20208;-88
2023/08/30 07:17:16;;;;;;;10.90;8.13;;;15.70;99.90;;;;;;4998794;28;20260;-89
2023/08/30 07:19:44;;;;;;;10.40;7.40;;;15.60;99.90;;;;;;5002922;28;20183;-89
2023/08/30 07:22:10;;;;;;;9.20;7.33;;;15.50;99.90;;;;;;5007584;28;20290;-88
2023/08/30 07:24:36;;;;;;;11.00;7.53;;;15.40;99.90;;;;;;5007519;28;20605;-89
2023/08/30 07:27:02;;;;;;;9.60;6.97;;;15.50;99.90;;;;;;5012364;28;20182;-90
2023/08/30 07:29:28;;;;;;;7.57;6.43;;;15.40;99.90;;;;;;5007852;28;20254;-90
2023/08/30 07:31:54;;;;;;;10.27;7.50;;;15.50;99.90;;;;;;5025801;28;20628;-89
2023/08/30 07:34:22;;;;;;;9.10;6.90;;;15.50;99.90;;;;;;4996987;28;20201;-89
2023/08/30 07:36:49;;;;;;;8.00;6.63;;;15.50;99.90;;;;;;5003959;28;20186;-89
2023/08/30 07:39:16;;;;;;;8.60;6.97;;;15.50;99.90;;;;;;5016711;28;20175;-88
2023/08/30 07:41:42;;;;;;;10.30;7.10;;;15.50;99.90;;;;;;5020908;28;20251;-88
2023/08/30 07:44:08;;;;;;;7.97;6.80;;;15.40;99.90;;;;;;5021209;28;20187;-87
2023/08/30 07:46:34;;;;;;;8.67;6.50;;;15.40;99.90;;;;;;5024181;28;20166;-88
2023/08/30 07:49:00;;;;;;;8.87;7.23;;;15.50;99.90;;;;;;5002006;28;20202;-88
2023/08/30 07:51:25;;;;;;;8.63;6.63;;;15.60;99.90;;;;;;4996433;28;20560;-88
2023/08/30 07:53:51;;;;;;;7.83;6.50;;;15.60;99.90;;;;;;5002020;28;20205;-88
2023/08/30 07:56:17;;;;;;;9.03;6.97;;;15.50;99.90;;;;;;5004586;28;20182;-87
2023/08/30 07:58:42;;;;;;;8.80;5.97;;;15.50;99.90;;;;;;4999446;28;20210;-85
2023/08/30 08:01:11;;;;;;;8.53;6.53;;;15.70;99.90;;;;;;5006796;28;20258;-90
2023/08/30 08:03:37;;;;;;;8.10;5.80;;;15.70;99.90;;;;;;4999155;28;20265;-87
2023/08/30 08:06:03;;;;;;;9.17;6.37;;;15.90;99.90;;;;;;5011748;28;20186;-88
2023/08/30 08:08:29;;;;;;;7.93;6.03;;;16.00;99.90;;;;;;5003899;28;20182;-88
2023/08/30 08:10:56;;;;;;;8.27;6.03;;;16.10;99.90;;;;;;4999642;28;20182;-94
2023/08/30 08:13:21;;;;;;;9.03;6.10;;;16.10;99.90;;;;;;4996014;28;20195;-91
2023/08/30 08:15:47;;;;;;;10.67;6.00;;;16.00;99.90;;;;;;4999061;28;20277;-86
2023/08/30 08:18:13;;;;;;;9.73;5.90;;;15.90;99.90;;;;;;4997650;28;20214;-85
2023/08/30 08:20:39;;;;;;;9.50;6.30;;;16.00;99.90;;;;;;5015702;28;20593;-88
2023/08/30 08:23:05;;;;;;;9.80;6.73;;;16.00;99.90;;;;;;5004685;28;20651;-90
2023/08/30 08:25:30;;;;;;;7.50;5.43;;;15.90;99.90;;;;;;5008704;28;20205;-91
2023/08/30 08:27:56;;;;;;;6.30;4.93;;;15.90;99.90;;;;;;4999056;28;20670;-88
2023/08/30 08:30:22;;;;;;;6.70;4.90;;;15.90;99.90;;;;;;4999033;28;20186;-90
2023/08/30 08:32:48;;;;;;;5.90;4.60;;;16.00;99.90;;;;;;4997503;28;20182;-91
2023/08/30 08:35:14;;;;;;;6.70;4.73;;;16.00;99.90;;;;;;4996856;28;20657;-88
2023/08/30 08:37:40;;;;;;;6.13;4.93;;;16.10;99.90;;;;;;4991835;28;20721;-87
2023/08/30 08:40:08;;;;;;;7.03;5.17;;;16.20;99.90;;;;;;4986591;28;20183;-87
2023/08/30 08:42:36;;;;;;;7.13;4.03;;;16.40;99.90;;;;;;5003456;28;20222;-86
2023/08/30 08:45:06;;;;;;;6.57;4.20;;;16.50;99.90;;;;;;5011922;28;20174;-86
2023/08/30 08:47:31;;;;;;;6.37;4.97;;;16.70;99.90;;;;;;5009202;28;20360;-87
2023/08/30 08:49:59;;;;;;;6.17;4.07;;;16.80;99.90;;;;;;4993147;28;20265;-86
2023/08/30 08:52:28;;;;;;;7.50;4.00;;;17.00;99.90;;;;;;4996938;28;20180;-94
2023/08/30 08:54:55;;;;;;;8.53;4.70;;;17.20;99.90;;;;;;4995358;28;20179;-86
2023/08/30 08:57:21;;;;;;;5.53;3.70;;;17.30;99.90;;;;;;5005702;28;20209;-86
2023/08/30 08:59:47;;;;;;;6.20;4.27;;;17.40;99.90;;;;;;5010503;28;20187;-88
2023/08/30 09:02:14;;;;;;;4.30;3.80;;;17.40;99.90;;;;;;4997162;28;20541;-88
2023/08/30 09:04:40;;;;;;;5.70;4.33;;;17.30;99.90;;;;;;4996841;28;20195;-87
2023/08/30 09:07:06;;;;;;;4.67;3.90;;;17.20;99.90;;;;;;4995268;28;20182;-87
2023/08/30 09:09:33;;;;;;;4.53;3.83;;;17.20;99.90;;;;;;4995183;28;20233;-87
2023/08/30 09:11:59;;;;;;;5.20;4.33;;;17.30;99.90;;;;;;4996842;28;20222;-87
2023/08/30 09:14:25;;;;;;;5.90;4.43;;;17.20;99.90;;;;;;5006755;28;20230;-87
2023/08/30 09:17:01;;;;;;;7.80;4.63;;;17.30;99.90;;;;;;5012211;28;20178;-87
2023/08/30 09:19:28;;;;;;;7.93;5.00;;;17.40;99.90;;;;;;5012556;28;20176;-86
2023/08/30 09:21:57;;;;;;;5.83;5.23;;;17.40;99.90;;;;;;5012284;28;20176;-86
2023/08/30 09:24:24;;;;;;;7.10;5.83;;;17.40;99.90;;;;;;5012523;28;20630;-86
2023/08/30 09:26:52;;;;;;;6.90;6.00;;;17.40;99.90;;;;;;5013854;28;20166;-88
2023/08/30 09:29:19;;;;;;;6.97;6.17;;;17.40;99.90;;;;;;5012738;28;20183;-86
2023/08/30 09:31:45;;;;;;;7.43;6.47;;;17.30;99.90;;;;;;5002511;28;20258;-89
2023/08/30 09:34:11;;;;;;;7.43;6.67;;;17.30;99.90;;;;;;4995578;28;20185;-88
2023/08/30 09:36:41;;;;;;;7.40;6.70;;;17.20;99.90;;;;;;4995399;28;20657;-87
2023/08/30 09:39:11;;;;;;;8.63;7.20;;;17.30;99.90;;;;;;4995743;28;20301;-88
2023/08/30 09:41:43;;;;;;;7.93;7.13;;;17.20;99.90;;;;;;4997300;28;20258;-86
2023/08/30 09:44:14;;;;;;;8.70;6.90;;;17.30;99.90;;;;;;5006246;28;20200;-88
2023/08/30 09:46:46;;;;;;;8.87;7.03;;;17.40;99.90;;;;;;4991553;28;20184;-87
2023/08/30 09:49:13;;;;;;;7.73;6.93;;;17.30;99.90;;;;;;4996107;28;20181;-88
2023/08/30 09:51:42;;;;;;;7.93;6.60;;;17.30;99.90;;;;;;4995453;28;20231;-88
2023/08/30 09:54:18;;;;;;;8.93;6.83;;;17.30;99.90;;;;;;4995682;28;20178;-87
2023/08/30 09:56:45;;;;;;;8.07;6.60;;;17.20;99.90;;;;;;4995593;28;20211;-87
2023/08/30 09:59:12;;;;;;;9.07;6.87;;;17.30;99.90;;;;;;4995668;28;20272;-88
2023/08/30 10:01:39;;;;;;;8.90;7.30;;;17.20;99.90;;;;;;4995167;28;20191;-87
2023/08/30 10:04:08;;;;;;;8.67;7.33;;;17.20;99.90;;;;;;4995732;28;20172;-87
2023/08/30 10:06:38;;;;;;;7.87;7.07;;;17.20;99.90;;;;;;4996005;28;20589;-88
2023/08/30 10:09:07;;;;;;;8.60;7.70;;;17.10;99.90;;;;;;4996020;28;20265;-87
2023/08/30 10:11:37;;;;;;;7.90;7.10;;;17.10;99.90;;;;;;4996176;28;20237;-89
2023/08/30 10:14:04;;;;;;;8.87;7.80;;;17.20;99.90;;;;;;4995866;28;20196;-87
2023/08/30 10:16:58;;;;;;;11.17;7.47;;;17.20;99.90;;;;;;4995544;28;20269;-87
2023/08/30 10:19:27;;;;;;;8.80;7.77;;;17.20;99.90;;;;;;4992078;28;20190;-88
2023/08/30 10:22:17;;;;;;;8.70;7.80;;;17.30;99.90;;;;;;4995305;28;20287;-88
2023/08/30 10:24:51;;;;;;;9.20;8.07;;;17.40;99.90;;;;;;4996634;28;20215;-88
2023/08/30 10:27:18;;;;;;;8.30;7.50;;;17.50;99.90;;;;;;5013300;28;20695;-88
2023/08/30 10:29:45;;;;;;;9.57;7.60;;;17.60;99.90;;;;;;5006993;28;20221;-87
2023/08/30 10:32:11;;;;;;;11.73;9.03;;;17.60;99.90;;;;;;5009467;28;20171;-87
2023/08/30 10:34:47;;;;;;;9.57;8.23;;;17.60;99.90;;;;;;5003697;28;20616;-87
2023/08/30 10:37:12;;;;;;;8.53;7.70;;;17.70;99.90;;;;;;5000225;28;20197;-88
2023/08/30 10:39:45;;;;;;;8.53;7.23;;;17.80;99.90;;;;;;4997624;28;20176;-88
2023/08/30 10:42:12;;;;;;;7.77;6.90;;;18.00;99.90;;;;;;4998347;28;20248;-87
2023/08/30 10:44:52;;;;;;;7.90;7.10;;;18.10;99.90;;;;;;4997270;28;20261;-87
2023/08/30 10:47:25;;;;;;;10.33;7.63;;;18.20;99.90;;;;;;4996002;28;20189;-88
2023/08/30 10:49:55;;;;;;;13.47;7.77;;;18.10;99.90;;;;;;5015083;28;20218;-88
2023/08/30 10:52:21;;;;;;;11.50;8.43;;;18.10;96.00;;;;;;4995677;28;20185;-88
2023/08/30 10:54:46;;;;;;;8.13;6.90;;;18.20;99.90;;;;;;4995110;28;20559;-87
2023/08/30 10:57:14;;;;;;;9.00;7.37;;;18.00;99.90;;;;;;5013028;28;20197;-90
2023/08/30 10:59:40;;;;;;;7.80;7.00;;;18.10;99.90;;;;;;4998978;28;20184;-89
2023/08/30 11:02:06;;;;;;;7.23;6.40;;;18.10;99.90;;;;;;5000060;28;20229;-89
2023/08/30 11:04:32;;;;;;;9.73;7.57;;;18.10;99.90;;;;;;5000917;28;20188;-88
2023/08/30 11:06:59;;;;;;;9.67;7.93;;;18.10;99.90;;;;;;4999766;28;20179;-89
2023/08/30 11:09:25;;;;;;;9.07;6.80;;;18.30;99.90;;;;;;4999686;28;20627;-88
2023/08/30 11:11:51;;;;;;;8.07;7.20;;;18.40;99.90;;;;;;4999682;28;20174;-90
2023/08/30 11:14:18;;;;;;;8.03;6.90;;;18.60;99.90;;;;;;5018010;28;20191;-91
2023/08/30 11:16:45;;;;;;;7.90;6.73;;;18.70;99.90;;;;;;4999762;28;20226;-89
2023/08/30 11:19:11;;;;;;;9.50;6.90;;;18.70;99.90;;;;;;5018304;28;20209;-88
2023/08/30 11:21:39;;;;;;;7.73;6.63;;;18.80;99.90;;;;;;5002328;28;20213;-83
2023/08/30 11:24:06;;;;;;;9.27;6.17;;;18.80;99.90;;;;;;4997659;28;20491;-87
2023/08/30 11:26:34;;;;;;;8.27;5.73;;;18.70;99.90;;;;;;5011526;28;20166;-83
2023/08/30 11:29:07;;;;;;;8.73;5.83;;;18.60;99.90;;;;;;4997646;28;20670;-84
2023/08/30 11:31:33;;;;;;;8.97;6.00;;;18.70;99.90;;;;;;5019067;28;20665;-84
2023/08/30 11:34:00;;;;;;;7.70;3.87;;;18.80;99.90;;;;;;5003213;28;20179;-84
2023/08/30 11:36:31;;;;;;;5.50;3.27;;;18.70;99.90;;;;;;5028846;28;20181;-84
2023/08/30 11:38:57;;;;;;;7.67;3.70;;;18.80;99.90;;;;;;5010233;28;20236;-85
2023/08/30 11:41:26;;;;;;;7.37;2.97;;;18.80;99.90;;;;;;5013926;28;20174;-85
2023/08/30 11:43:53;;;;;;;11.37;3.27;;;18.80;99.90;;;;;;5017277;28;20170;-88
2023/08/30 11:46:23;;;;;;;6.80;2.80;;;18.90;99.90;;;;;;5018374;28;20174;-88
2023/08/30 11:48:52;;;;;;;9.27;2.90;;;19.10;99.90;;;;;;5017590;28;20190;-91
2023/08/30 11:51:20;;;;;;;5.50;3.07;;;19.20;99.90;;;;;;4999581;28;20218;-87
2023/08/30 11:53:48;;;;;;;9.23;3.30;;;19.10;99.90;;;;;;5016520;28;20224;-86
2023/08/30 11:56:13;;;;;;;9.67;3.83;;;19.10;99.90;;;;;;5015857;28;20185;-85
2023/08/30 11:58:39;;;;;;;7.60;2.67;;;19.10;99.90;;;;;;5014916;28;20206;-91
2023/08/30 12:01:07;;;;;;;6.30;3.20;;;19.20;99.90;;;;;;4998726;28;20171;-89
2023/08/30 12:03:32;;;;;;;9.63;2.60;;;19.20;99.90;;;;;;5013012;28;20187;-90
2023/08/30 12:05:58;;;;;;;5.07;2.40;;;19.10;99.90;;;;;;5037405;28;20187;-89
2023/08/30 12:08:30;;;;;;;6.80;2.40;;;18.90;99.90;;;;;;5020290;28;20192;-84
2023/08/30 12:10:57;;;;;;;7.33;2.63;;;19.00;99.90;;;;;;5019823;28;20223;-87
2023/08/30 12:13:29;;;;;;;9.27;2.43;;;19.00;99.90;;;;;;5019708;28;20184;-85
2023/08/30 12:16:01;;;;;;;8.53;2.73;;;18.90;99.90;;;;;;5018644;28;20193;-89
2023/08/30 12:18:55;;;;;;;6.03;2.80;;;19.00;99.90;;;;;;4998077;28;20295;-85
2023/08/30 12:21:21;;;;;;;8.93;2.37;;;19.00;99.90;;;;;;4997846;28;20240;-85
2023/08/30 12:23:47;;;;;;;8.77;2.53;;;18.90;99.90;;;;;;5004102;28;20167;-84
2023/08/30 12:26:13;;;;;;;10.37;2.80;;;18.90;99.90;;;;;;5005868;28;20247;-84
2023/08/30 12:28:40;;;;;;;7.63;2.50;;;19.00;99.90;;;;;;5020342;28;20170;-85
2023/08/30 12:31:06;;;;;;;7.23;2.30;;;19.20;99.90;;;;;;5015071;28;20183;-84
2023/08/30 12:33:34;;;;;;;9.27;2.63;;;19.40;99.90;;;;;;4996795;28;20613;-86
2023/08/30 12:36:00;;;;;;;7.63;2.97;;;19.30;99.90;;;;;;4996668;28;20181;-84
2023/08/30 12:38:29;;;;;;;4.97;2.10;;;19.40;99.90;;;;;;5014066;28;20202;-85
2023/08/30 12:40:56;;;;;;;9.27;2.50;;;19.60;99.90;;;;;;4996849;28;20287;-85
2023/08/30 12:43:23;;;;;;;7.97;2.73;;;19.70;99.90;;;;;;5014143;28;20187;-84
2023/08/30 12:45:49;;;;;;;6.90;2.37;;;19.80;99.90;;;;;;4996834;28;20174;-85
2023/08/30 12:48:17;;;;;;;5.73;2.23;;;19.80;99.90;;;;;;4997776;28;20199;-85
2023/08/30 12:50:48;;;;;;;6.40;2.20;;;19.50;99.90;;;;;;5016333;28;20644;-84
2023/08/30 12:53:16;;;;;;;8.67;2.27;;;19.50;99.90;;;;;;4997138;28;20733;-84